createdAt,value
2022-12-20T00:01:26.556Z,5.70
2022-12-20T00:03:56.256Z,5.63
2022-12-20T00:06:24.567Z,5.60
2022-12-20T00:08:54.994Z,5.53
2022-12-20T00:11:22.122Z,5.10
2022-12-20T00:13:50.616Z,5.63
2022-12-20T00:16:20.222Z,4.97
2022-12-20T00:18:50.907Z,5.77
2022-12-20T00:21:17.944Z,4.10
2022-12-20T00:23:45.006Z,4.97
2022-12-20T00:26:15.370Z,5.73
2022-12-20T00:28:44.503Z,5.10
2022-12-20T00:31:17.180Z,5.57
2022-12-20T00:33:47.925Z,5.23
2022-12-20T00:36:17.139Z,5.57
2022-12-20T00:38:45.243Z,4.73
2022-12-20T00:41:14.689Z,5.03
2022-12-20T00:43:42.357Z,4.70
2022-12-20T00:46:13.067Z,5.40
2022-12-20T00:48:40.445Z,5.33
2022-12-20T00:51:11.439Z,5.40
2022-12-20T00:53:39.583Z,5.23
2022-12-20T00:56:08.060Z,4.53
2022-12-20T00:58:37.048Z,5.10
2022-12-20T01:01:05.065Z,5.30
2022-12-20T01:03:34.285Z,5.30
2022-12-20T01:06:02.695Z,5.43
2022-12-20T01:08:31.174Z,5.30
2022-12-20T01:11:00.939Z,5.27
2022-12-20T01:13:28.921Z,4.80
2022-12-20T01:15:56.289Z,5.07
2022-12-20T01:18:23.597Z,4.83
2022-12-20T01:21:02.579Z,5.57
2022-12-20T01:23:30.158Z,4.60
2022-12-20T01:25:59.358Z,5.47
2022-12-20T01:28:27.220Z,5.23
2022-12-20T01:30:54.319Z,4.50
2022-12-20T01:33:21.461Z,4.67
2022-12-20T01:35:58.342Z,5.00
2022-12-20T01:38:26.173Z,5.00
2022-12-20T01:40:53.786Z,4.57
2022-12-20T01:43:22.324Z,5.03
2022-12-20T01:45:49.679Z,4.83
2022-12-20T01:48:22.167Z,4.43
2022-12-20T01:50:53.458Z,4.13
2022-12-20T01:53:24.284Z,5.27
2022-12-20T01:55:51.519Z,5.07
2022-12-20T01:58:21.898Z,4.93
2022-12-20T02:00:49.350Z,5.07
2022-12-20T02:03:17.298Z,5.00
2022-12-20T02:05:46.734Z,5.17
2022-12-20T02:08:17.274Z,4.80
2022-12-20T02:11:08.372Z,4.50
2022-12-20T02:13:47.849Z,4.70
2022-12-20T02:16:25.209Z,4.87
2022-12-20T02:19:05.065Z,4.47
2022-12-20T02:21:39.497Z,4.60
2022-12-20T02:24:48.175Z,4.53
2022-12-20T02:27:41.180Z,4.30
2022-12-20T02:30:15.304Z,4.83
2022-12-20T02:32:50.081Z,4.43
2022-12-20T02:35:22.870Z,4.63
2022-12-20T02:37:53.290Z,4.60
2022-12-20T02:40:25.636Z,4.33
2022-12-20T02:42:59.229Z,4.90
2022-12-20T02:45:33.914Z,5.03
2022-12-20T02:48:07.703Z,4.13
2022-12-20T02:50:40.285Z,4.03
2022-12-20T02:53:09.837Z,4.33
2022-12-20T02:55:46.891Z,4.00
2022-12-20T02:58:26.127Z,4.60
2022-12-20T03:00:59.547Z,4.13
2022-12-20T03:03:26.696Z,4.17
2022-12-20T03:05:55.758Z,4.20
2022-12-20T03:08:23.916Z,4.13
2022-12-20T03:10:53.206Z,4.50
2022-12-20T03:13:21.115Z,3.97
2022-12-20T03:15:48.178Z,3.93
2022-12-20T03:18:16.549Z,3.90
2022-12-20T03:20:43.852Z,4.20
2022-12-20T03:23:11.137Z,4.07
2022-12-20T03:25:38.194Z,4.10
2022-12-20T03:28:05.157Z,4.00
2022-12-20T03:30:32.318Z,4.67
2022-12-20T03:32:59.323Z,4.10
2022-12-20T03:35:27.616Z,4.30
2022-12-20T03:37:55.561Z,4.07
2022-12-20T03:40:23.215Z,4.00
2022-12-20T03:42:50.191Z,4.23
2022-12-20T03:45:17.477Z,4.20
2022-12-20T03:47:44.645Z,3.83
2022-12-20T03:50:12.383Z,3.83
2022-12-20T03:52:40.753Z,3.90
2022-12-20T03:55:09.650Z,4.10
2022-12-20T03:57:36.687Z,3.70
2022-12-20T04:00:04.940Z,3.67
2022-12-20T04:02:32.191Z,4.00
2022-12-20T04:04:59.267Z,4.30
2022-12-20T04:07:26.233Z,3.70
2022-12-20T04:09:54.599Z,3.77
2022-12-20T04:12:21.553Z,3.67
2022-12-20T04:14:48.491Z,3.40
2022-12-20T04:17:15.728Z,3.70
2022-12-20T04:19:42.720Z,3.97
2022-12-20T04:22:10.059Z,3.20
2022-12-20T04:24:38.120Z,4.10
2022-12-20T04:27:06.497Z,4.00
2022-12-20T04:29:33.470Z,3.43
2022-12-20T04:32:00.542Z,3.47
2022-12-20T04:34:27.872Z,3.77
2022-12-20T04:36:54.885Z,3.13
2022-12-20T04:39:21.904Z,3.97
2022-12-20T04:41:48.968Z,3.40
2022-12-20T04:44:17.543Z,3.23
2022-12-20T04:46:44.568Z,3.83
2022-12-20T04:49:11.599Z,3.37
2022-12-20T04:51:38.524Z,3.87
2022-12-20T04:54:05.780Z,3.50
2022-12-20T04:56:32.965Z,3.63
2022-12-20T04:59:00.144Z,3.10
2022-12-20T05:01:28.628Z,3.20
2022-12-20T05:03:56.063Z,3.67
2022-12-20T05:06:23.070Z,3.50
2022-12-20T05:08:50.203Z,3.27
2022-12-20T05:11:17.706Z,3.67
2022-12-20T05:13:44.771Z,3.60
2022-12-20T05:16:12.099Z,3.07
2022-12-20T05:18:44.671Z,3.23
2022-12-20T05:21:34.582Z,3.50
2022-12-20T05:24:20.458Z,3.40
2022-12-20T05:26:47.487Z,3.70
2022-12-20T05:29:14.476Z,3.07
2022-12-20T05:31:41.735Z,3.83
2022-12-20T05:34:10.190Z,3.30
2022-12-20T05:36:37.239Z,3.80
2022-12-20T05:39:04.924Z,3.93
2022-12-20T05:41:32.163Z,3.43
2022-12-20T05:43:59.363Z,3.60
2022-12-20T05:46:26.499Z,3.43
2022-12-20T05:48:53.529Z,3.43
2022-12-20T05:51:21.951Z,3.57
2022-12-20T05:53:49.088Z,3.60
2022-12-20T05:56:16.186Z,3.40
2022-12-20T05:58:43.178Z,3.57
2022-12-20T06:01:10.516Z,3.73
2022-12-20T06:03:38.159Z,3.63
2022-12-20T06:06:13.623Z,4.00
2022-12-20T06:08:43.139Z,3.50
2022-12-20T06:11:10.400Z,4.20
2022-12-20T06:13:37.520Z,3.50
2022-12-20T06:16:05.170Z,3.80
2022-12-20T06:18:32.185Z,3.70
2022-12-20T06:20:59.379Z,4.23
2022-12-20T06:23:26.343Z,3.77
2022-12-20T06:25:55.165Z,3.87
2022-12-20T06:28:22.362Z,3.97
2022-12-20T06:30:53.743Z,4.10
2022-12-20T06:33:21.085Z,3.67
2022-12-20T06:35:50.349Z,3.93
2022-12-20T06:38:18.005Z,4.00
2022-12-20T06:40:45.319Z,3.93
2022-12-20T06:43:13.664Z,4.50
2022-12-20T06:45:42.076Z,4.00
2022-12-20T06:48:09.908Z,4.40
2022-12-20T06:50:37.656Z,4.10
2022-12-20T06:53:04.813Z,4.63
2022-12-20T06:55:31.860Z,4.40
2022-12-20T06:57:58.904Z,4.40
2022-12-20T07:00:27.519Z,4.00
2022-12-20T07:02:55.066Z,4.47
2022-12-20T07:05:22.545Z,4.33
2022-12-20T07:07:49.711Z,4.37
2022-12-20T07:10:17.241Z,4.17
2022-12-20T07:12:48.159Z,3.97
2022-12-20T07:15:16.032Z,3.67
2022-12-20T07:17:46.828Z,4.03
2022-12-20T07:20:15.048Z,3.70
2022-12-20T07:22:42.432Z,3.77
2022-12-20T07:25:11.278Z,4.20
2022-12-20T07:27:38.401Z,4.50
2022-12-20T07:30:07.476Z,4.40
2022-12-20T07:32:34.614Z,3.83
2022-12-20T07:35:02.945Z,4.03
2022-12-20T07:37:30.379Z,4.43
2022-12-20T07:39:57.454Z,3.90
2022-12-20T07:42:31.967Z,4.07
2022-12-20T07:45:02.744Z,4.43
2022-12-20T07:47:29.965Z,4.10
2022-12-20T07:49:57.004Z,3.33
2022-12-20T07:52:28.726Z,4.00
2022-12-20T07:55:02.609Z,3.50
2022-12-20T07:57:38.072Z,3.57
2022-12-20T08:00:08.653Z,3.80
2022-12-20T08:02:44.572Z,3.90
2022-12-20T08:05:12.472Z,3.50
2022-12-20T08:07:43.477Z,3.83
2022-12-20T08:10:14.245Z,4.13
2022-12-20T08:12:45.145Z,4.17
2022-12-20T08:15:13.230Z,4.00
2022-12-20T08:17:41.092Z,3.83
2022-12-20T08:20:10.197Z,3.80
2022-12-20T08:22:37.290Z,4.23
2022-12-20T08:25:07.435Z,3.63
2022-12-20T08:27:34.488Z,3.67
2022-12-20T08:30:01.495Z,3.93
2022-12-20T08:32:29.356Z,3.80
2022-12-20T08:34:56.465Z,3.73
2022-12-20T08:37:23.501Z,4.20
2022-12-20T08:39:50.533Z,3.97
2022-12-20T08:42:19.102Z,4.23
2022-12-20T08:44:46.292Z,4.10
2022-12-20T08:47:13.349Z,4.00
2022-12-20T08:49:47.214Z,3.87
2022-12-20T08:52:14.840Z,4.00
2022-12-20T08:54:41.838Z,3.47
2022-12-20T08:57:09.246Z,4.10
2022-12-20T08:59:37.585Z,3.90
2022-12-20T09:02:04.954Z,4.10
2022-12-20T09:04:32.287Z,3.87
2022-12-20T09:06:59.306Z,3.97
2022-12-20T09:09:26.491Z,4.20
2022-12-20T09:11:56.168Z,3.97
2022-12-20T09:14:23.901Z,4.10
2022-12-20T09:16:52.271Z,3.90
2022-12-20T09:19:19.259Z,3.57
2022-12-20T09:21:46.215Z,3.90
2022-12-20T09:24:13.131Z,3.90
2022-12-20T09:26:42.998Z,3.33
2022-12-20T09:29:12.847Z,3.37
2022-12-20T09:31:39.927Z,4.37
2022-12-20T09:34:10.078Z,3.90
2022-12-20T09:36:38.162Z,3.87
2022-12-20T09:39:05.189Z,3.47
2022-12-20T09:41:38.356Z,4.00
2022-12-20T09:44:15.319Z,3.90
2022-12-20T09:46:45.967Z,3.80
2022-12-20T09:49:19.108Z,4.07
2022-12-20T09:52:23.299Z,3.60
2022-12-20T09:55:13.633Z,3.60
2022-12-20T09:57:57.567Z,4.07
2022-12-20T10:00:24.717Z,3.40
2022-12-20T10:03:08.854Z,3.23
2022-12-20T10:05:49.359Z,4.03
2022-12-20T10:08:43.658Z,4.07
2022-12-20T10:11:51.068Z,3.13
2022-12-20T10:14:57.651Z,4.47
2022-12-20T10:17:49.780Z,3.70
2022-12-20T10:20:34.823Z,3.83
2022-12-20T10:23:15.311Z,3.70
2022-12-20T10:25:44.976Z,4.27
2022-12-20T10:28:18.906Z,3.53
2022-12-20T10:30:46.195Z,3.73
2022-12-20T10:33:22.078Z,4.13
2022-12-20T10:35:50.790Z,3.83
2022-12-20T10:38:22.850Z,3.60
2022-12-20T10:44:11.535Z,3.80
2022-12-20T10:46:43.544Z,3.97
2022-12-20T10:49:32.172Z,3.87
2022-12-20T10:52:15.321Z,3.43
2022-12-20T10:54:46.567Z,3.27
2022-12-20T10:57:21.496Z,4.10
2022-12-20T10:59:54.317Z,3.77
2022-12-20T11:02:34.941Z,3.57
2022-12-20T11:05:24.368Z,3.50
2022-12-20T11:10:51.844Z,3.60
2022-12-20T11:13:29.073Z,3.50
2022-12-20T11:16:01.525Z,4.00
2022-12-20T11:18:45.375Z,3.77
2022-12-20T11:21:31.054Z,3.40
2022-12-20T11:24:11.612Z,3.40
2022-12-20T11:27:15.609Z,3.97
2022-12-20T11:30:18.415Z,3.10
2022-12-20T11:33:30.412Z,3.00
2022-12-20T11:36:05.198Z,3.30
2022-12-20T11:38:42.530Z,3.30
2022-12-20T11:41:29.433Z,3.47
2022-12-20T11:44:25.725Z,3.30
2022-12-20T11:47:32.417Z,3.77
2022-12-20T11:50:32.687Z,3.10
2022-12-20T11:53:08.713Z,3.60
2022-12-20T11:55:41.711Z,3.10
2022-12-20T11:58:20.128Z,3.10
2022-12-20T12:00:56.859Z,3.30
2022-12-20T12:03:33.706Z,3.23
2022-12-20T12:06:07.123Z,3.70
2022-12-20T12:08:46.784Z,3.83
2022-12-20T12:12:03.824Z,3.03
2022-12-20T12:14:25.826Z,3.50
2022-12-20T12:17:05.174Z,3.30
2022-12-20T12:19:43.136Z,3.67
2022-12-20T12:22:21.871Z,3.23
2022-12-20T12:24:54.226Z,3.50
2022-12-20T12:27:27.390Z,2.87
2022-12-20T12:29:58.104Z,3.70
2022-12-20T12:32:33.037Z,3.40
2022-12-20T12:35:23.872Z,3.13
2022-12-20T12:38:09.227Z,3.37
2022-12-20T12:41:14.997Z,3.70
2022-12-20T12:43:50.077Z,3.50
2022-12-20T12:46:25.990Z,3.60
2022-12-20T12:49:01.663Z,3.20
2022-12-20T12:51:33.114Z,4.03
2022-12-20T12:54:21.901Z,4.20
2022-12-20T12:56:50.764Z,3.30
2022-12-20T12:59:51.722Z,3.23
2022-12-20T13:02:52.271Z,3.40
2022-12-20T13:05:37.043Z,3.50
2022-12-20T13:08:17.395Z,3.97
2022-12-20T13:11:01.741Z,3.80
2022-12-20T13:13:29.244Z,3.63
2022-12-20T13:16:13.968Z,3.80
2022-12-20T13:19:10.827Z,3.60
2022-12-20T13:21:43.825Z,3.40
2022-12-20T13:24:50.928Z,3.20
2022-12-20T13:27:45.309Z,4.03
2022-12-20T13:30:28.563Z,3.80
2022-12-20T13:33:24.794Z,2.93
2022-12-20T13:36:25.536Z,3.50
2022-12-20T13:38:58.678Z,3.40
2022-12-20T13:41:44.310Z,3.60
2022-12-20T13:44:40.052Z,3.83
2022-12-20T13:47:28.349Z,4.00
2022-12-20T13:49:59.571Z,3.93
2022-12-20T13:52:31.320Z,3.83
2022-12-20T13:55:07.868Z,4.30
2022-12-20T13:57:44.762Z,4.07
2022-12-20T14:00:18.672Z,4.30
2022-12-20T14:02:46.142Z,4.53
2022-12-20T14:05:21.614Z,4.63
2022-12-20T14:07:58.520Z,4.00
2022-12-20T14:10:29.934Z,3.90
2022-12-20T14:12:58.249Z,4.27
2022-12-20T14:15:30.005Z,4.27
2022-12-20T14:17:57.865Z,3.97
2022-12-20T14:20:31.710Z,4.30
2022-12-20T14:23:05.918Z,3.77
2022-12-20T14:25:43.081Z,3.73
2022-12-20T14:28:29.745Z,4.13
2022-12-20T14:31:00.153Z,4.00
2022-12-20T14:33:34.250Z,3.73
2022-12-20T14:36:16.493Z,4.37
2022-12-20T14:38:46.548Z,4.13
2022-12-20T14:41:39.406Z,3.97
2022-12-20T14:44:20.300Z,3.20
2022-12-20T14:46:52.160Z,3.77
2022-12-20T14:49:28.068Z,4.00
2022-12-20T14:52:14.773Z,3.90
2022-12-20T14:57:42.911Z,3.77
2022-12-20T15:00:21.336Z,3.43
2022-12-20T15:02:59.369Z,3.40
2022-12-20T15:05:43.143Z,4.13
2022-12-20T15:08:12.377Z,3.83
2022-12-20T15:10:42.132Z,3.67
2022-12-20T15:13:16.027Z,3.00
2022-12-20T15:15:44.041Z,4.10
2022-12-20T15:18:18.253Z,3.07
2022-12-20T15:21:00.262Z,3.43
2022-12-20T15:23:27.435Z,3.53
2022-12-20T15:25:54.891Z,3.50
2022-12-20T15:28:26.172Z,3.67
2022-12-20T15:30:55.216Z,3.40
2022-12-20T15:33:25.821Z,4.23
2022-12-20T15:35:53.740Z,4.50
2022-12-20T15:38:40.948Z,3.73
2022-12-20T15:41:19.956Z,3.20
2022-12-20T15:43:51.505Z,3.43
2022-12-20T15:46:18.511Z,3.97
2022-12-20T15:48:45.525Z,3.67
2022-12-20T15:51:18.040Z,3.97
2022-12-20T15:53:45.319Z,3.90
2022-12-20T15:56:19.393Z,4.10
2022-12-20T15:58:49.568Z,3.57
2022-12-20T16:01:22.136Z,4.13
2022-12-20T16:03:49.579Z,3.30
2022-12-20T16:06:17.144Z,3.50
2022-12-20T16:08:46.594Z,3.70
2022-12-20T16:11:21.928Z,3.93
2022-12-20T16:13:51.429Z,3.93
2022-12-20T16:16:21.612Z,3.70
2022-12-20T16:18:51.488Z,3.93
2022-12-20T16:21:21.898Z,4.10
2022-12-20T16:23:53.157Z,4.30
2022-12-20T16:26:23.412Z,5.50
2022-12-20T16:28:54.077Z,4.03
2022-12-20T16:31:27.795Z,3.97
2022-12-20T16:33:55.908Z,4.50
2022-12-20T16:36:24.111Z,4.83
2022-12-20T16:38:52.342Z,4.40
2022-12-20T16:41:23.891Z,4.97
2022-12-20T16:43:52.170Z,5.03
2022-12-20T16:46:22.097Z,4.90
2022-12-20T16:48:49.774Z,4.40
2022-12-20T16:51:24.995Z,4.40
2022-12-20T16:56:40.790Z,5.10
2022-12-20T16:59:19.167Z,5.07
2022-12-20T17:01:49.288Z,4.93
2022-12-20T17:04:18.980Z,5.13
2022-12-20T17:06:46.626Z,5.43
2022-12-20T17:11:58.911Z,5.20
2022-12-20T17:14:27.195Z,5.30
2022-12-20T17:16:54.363Z,5.40
2022-12-20T17:19:21.637Z,5.50
2022-12-20T17:24:34.146Z,5.90
2022-12-20T17:27:01.262Z,5.90
2022-12-20T17:29:29.976Z,6.27
2022-12-20T17:31:58.693Z,5.80
2022-12-20T17:34:30.821Z,6.13
2022-12-20T17:36:58.634Z,6.97
2022-12-20T17:39:26.411Z,6.43
2022-12-20T17:41:55.696Z,6.73
2022-12-20T17:44:25.303Z,6.53
2022-12-20T17:46:54.970Z,6.23
2022-12-20T17:49:25.490Z,7.47
2022-12-20T17:51:52.978Z,7.40
2022-12-20T17:54:26.871Z,6.20
2022-12-20T17:56:54.889Z,7.37
2022-12-20T17:59:22.446Z,7.63
2022-12-20T18:01:49.870Z,7.13
2022-12-20T18:04:18.452Z,7.87
2022-12-20T18:06:46.154Z,7.43
2022-12-20T18:09:15.919Z,6.97
2022-12-20T18:11:43.593Z,8.47
2022-12-20T18:14:11.681Z,8.50
2022-12-20T18:16:39.545Z,8.43
2022-12-20T18:19:08.453Z,8.50
2022-12-20T18:21:36.752Z,8.27
2022-12-20T18:24:05.678Z,7.70
2022-12-20T18:26:33.510Z,9.20
2022-12-20T18:29:02.565Z,9.40
2022-12-20T18:31:32.455Z,8.67
2022-12-20T18:34:01.070Z,8.60
2022-12-20T18:36:30.367Z,10.20
2022-12-20T18:39:00.818Z,8.73
2022-12-20T18:41:30.038Z,9.37
2022-12-20T18:43:59.131Z,9.60
2022-12-20T18:46:26.713Z,9.83
2022-12-20T18:48:56.318Z,10.33
2022-12-20T18:51:26.305Z,10.00
2022-12-20T18:53:55.885Z,10.50
2022-12-20T18:56:28.579Z,10.93
2022-12-20T18:59:03.016Z,11.10
2022-12-20T19:01:35.972Z,10.90
2022-12-20T19:04:05.794Z,9.80
2022-12-20T19:06:33.201Z,11.13
2022-12-20T19:09:00.882Z,10.33
2022-12-20T19:11:29.268Z,11.10
2022-12-20T19:13:56.589Z,10.73
2022-12-20T19:16:26.557Z,10.80
2022-12-20T19:18:53.986Z,11.77
2022-12-20T19:21:26.790Z,11.13
2022-12-20T19:23:56.834Z,11.03
2022-12-20T19:26:27.122Z,11.20
2022-12-20T19:28:55.964Z,11.73
2022-12-20T19:31:26.213Z,11.33
2022-12-20T19:33:55.808Z,13.03
2022-12-20T19:36:25.783Z,12.33
2022-12-20T19:38:56.535Z,11.93
2022-12-20T19:41:25.810Z,11.57
2022-12-20T19:43:52.979Z,11.37
2022-12-20T19:46:28.431Z,11.27
2022-12-20T19:48:58.208Z,10.93
2022-12-20T19:51:26.506Z,11.23
2022-12-20T19:53:55.861Z,12.07
2022-12-20T19:56:25.548Z,12.50
2022-12-20T19:58:53.682Z,11.90
2022-12-20T20:01:25.680Z,11.37
2022-12-20T20:03:53.763Z,11.83
2022-12-20T20:06:21.537Z,12.60
2022-12-20T20:08:49.680Z,11.93
2022-12-20T20:11:18.856Z,10.87
2022-12-20T20:13:46.350Z,12.10
2022-12-20T20:16:18.414Z,11.57
2022-12-20T20:18:50.734Z,11.83
2022-12-20T20:21:23.258Z,11.57
2022-12-20T20:23:52.530Z,10.97
2022-12-20T20:26:23.326Z,11.40
2022-12-20T20:28:51.334Z,12.57
2022-12-20T20:31:19.825Z,12.30
2022-12-20T20:33:47.115Z,12.57
2022-12-20T20:36:18.054Z,12.87
2022-12-20T20:38:46.172Z,13.23
2022-12-20T20:41:14.028Z,12.57
2022-12-20T20:43:41.814Z,12.60
2022-12-20T20:46:13.218Z,13.00
2022-12-20T20:48:41.221Z,12.47
2022-12-20T20:51:08.444Z,11.97
2022-12-20T20:53:36.922Z,13.13
2022-12-20T20:56:05.737Z,13.27
2022-12-20T20:58:33.269Z,12.83
2022-12-20T21:01:04.126Z,13.10
2022-12-20T21:03:32.271Z,14.07
2022-12-20T21:06:34.954Z,12.47
2022-12-20T21:08:47.848Z,13.00
2022-12-20T21:11:15.041Z,13.63
2022-12-20T21:13:42.007Z,12.60
2022-12-20T21:16:11.655Z,11.17
2022-12-20T21:18:38.636Z,12.47
2022-12-20T21:21:08.213Z,13.40
2022-12-20T21:23:35.158Z,13.90
2022-12-20T21:26:03.897Z,13.83
2022-12-20T21:28:31.578Z,13.53
2022-12-20T21:31:00.021Z,13.37
2022-12-20T21:33:27.558Z,11.63
2022-12-20T21:36:02.717Z,14.67
2022-12-20T21:38:30.246Z,14.40
2022-12-20T21:41:01.455Z,15.20
2022-12-20T21:43:30.031Z,15.97
2022-12-20T21:45:57.356Z,15.70
2022-12-20T21:48:25.942Z,14.63
2022-12-20T21:51:01.158Z,16.00
2022-12-20T21:53:28.544Z,15.73
2022-12-20T21:55:56.469Z,15.97
2022-12-20T21:58:24.243Z,16.23
2022-12-20T22:00:55.796Z,14.53
2022-12-20T22:03:24.700Z,17.83
2022-12-20T22:05:54.364Z,18.20
2022-12-20T22:08:23.144Z,18.63
2022-12-20T22:11:00.060Z,17.47
2022-12-20T22:13:27.882Z,18.47
2022-12-20T22:15:56.677Z,18.17
2022-12-20T22:18:24.502Z,17.73
2022-12-20T22:20:51.771Z,18.90
2022-12-20T22:23:18.695Z,19.67
2022-12-20T22:25:45.614Z,18.93
2022-12-20T22:28:12.798Z,21.23
2022-12-20T22:30:41.197Z,18.53
2022-12-20T22:33:09.732Z,20.10
2022-12-20T22:35:37.492Z,19.33
2022-12-20T22:38:05.250Z,18.90
2022-12-20T22:40:32.465Z,20.60
2022-12-20T22:42:59.382Z,19.80
2022-12-20T22:45:26.389Z,19.10
2022-12-20T22:47:53.320Z,21.43
2022-12-20T22:50:21.622Z,19.47
2022-12-20T22:52:48.489Z,20.23
2022-12-20T22:55:15.879Z,20.90
2022-12-20T22:57:42.834Z,21.43
2022-12-20T23:00:13.049Z,19.00
2022-12-20T23:02:40.822Z,20.73
2022-12-20T23:05:09.398Z,19.73
2022-12-20T23:07:37.635Z,19.30
2022-12-20T23:10:25.693Z,20.27
2022-12-20T23:13:27.958Z,19.70
2022-12-20T23:15:54.840Z,20.37
2022-12-20T23:18:21.736Z,21.73
2022-12-20T23:21:22.197Z,19.13
2022-12-20T23:23:55.710Z,18.73
2022-12-20T23:26:23.361Z,19.97
2022-12-20T23:28:50.969Z,20.13
2022-12-20T23:31:17.923Z,19.00
2022-12-20T23:33:44.894Z,19.97
2022-12-20T23:36:12.306Z,19.63
2022-12-20T23:38:39.700Z,22.83
2022-12-20T23:41:10.447Z,17.93
2022-12-20T23:43:38.307Z,19.40
2022-12-20T23:46:09.054Z,18.80
2022-12-20T23:48:36.397Z,19.23
2022-12-20T23:51:04.237Z,19.90
2022-12-20T23:53:31.665Z,19.00
2022-12-20T23:56:02.131Z,15.70
2022-12-20T23:58:30.811Z,17.50
